Time;durP1;ratioP1;P1;durP2;ratioP2;P2;SDS_P1;SDS_P2;PMS_P1;PMS_P2;Temp;Humidity;BMP_temperature;BMP_pressure;BME280_temperature;BME280_humidity;BME280_pressure;Samples;Min_cycle;Max_cycle;Signal;HPM_P1;HPM_P2
2022/01/27 00:00:56;;;;;;;48.15;23.10;;;5.20;99.90;;;;;;4758365;30;20101;-93
2022/01/27 00:07:04;;;;;;;48.72;23.40;;;5.30;99.90;;;;;;4847655;29;20040;-93
2022/01/27 00:09:45;;;;;;;45.65;21.42;;;5.20;99.90;;;;;;4815763;29;20420;-94
2022/01/27 00:12:11;;;;;;;41.10;20.60;;;5.30;99.90;;;;;;4815441;29;20050;-94
2022/01/27 00:14:45;;;;;;;48.00;22.65;;;5.30;99.90;;;;;;4815707;29;20140;-96
2022/01/27 00:17:16;;;;;;;39.60;20.85;;;5.30;99.90;;;;;;4830507;29;20061;-94
2022/01/27 00:20:19;;;;;;;44.03;23.48;;;5.30;99.90;;;;;;4815730;29;20089;-94
2022/01/27 00:22:45;;;;;;;46.92;23.58;;;5.00;99.90;;;;;;4830288;29;20058;-94
2022/01/27 00:25:11;;;;;;;46.90;23.02;;;5.30;99.90;;;;;;4815115;29;20054;-94
2022/01/27 00:27:40;;;;;;;45.97;22.70;;;5.30;99.90;;;;;;4815751;29;20050;-93
2022/01/27 00:30:10;;;;;;;46.03;22.65;;;5.50;99.90;;;;;;4815214;29;20413;-92
2022/01/27 00:32:36;;;;;;;47.90;23.30;;;5.30;99.90;;;;;;4814529;29;20390;-95
2022/01/27 00:35:03;;;;;;;37.58;20.33;;;5.30;99.90;;;;;;4830074;29;20064;-94
2022/01/27 00:37:29;;;;;;;43.40;20.98;;;5.30;99.90;;;;;;4815108;29;20527;-93
2022/01/27 00:39:55;;;;;;;45.45;22.25;;;5.40;99.90;;;;;;4814943;29;20075;-94
2022/01/27 00:42:24;;;;;;;40.17;22.10;;;5.30;99.90;;;;;;4815018;29;20057;-94
2022/01/27 00:44:54;;;;;;;40.55;20.83;;;5.40;99.90;;;;;;4830081;29;20057;-94
2022/01/27 00:47:20;;;;;;;38.63;20.02;;;5.40;99.90;;;;;;4815105;29;20093;-95
2022/01/27 00:49:48;;;;;;;41.92;20.70;;;5.40;99.90;;;;;;4818455;29;20445;-95
2022/01/27 00:52:26;;;;;;;51.65;21.55;;;5.40;99.90;;;;;;4830782;29;20065;-94
2022/01/27 00:54:59;;;;;;;38.43;16.40;;;5.50;99.90;;;;;;4817704;29;20058;-94
2022/01/27 01:00:00;;;;;;;41.33;19.02;;;5.50;99.90;;;;;;4829575;29;20101;-93
2022/01/27 01:05:23;;;;;;;40.40;20.25;;;5.50;99.90;;;;;;4831133;29;20054;-94
2022/01/27 01:07:52;;;;;;;46.20;20.30;;;5.80;99.90;;;;;;4830822;29;20109;-94
2022/01/27 01:15:42;;;;;;;37.88;18.00;;;5.60;99.90;;;;;;4829571;29;20113;-94
2022/01/27 01:29:54;;;;;;;40.70;18.15;;;5.90;99.90;;;;;;4829936;29;20152;-95
2022/01/27 01:32:47;;;;;;;39.75;18.77;;;5.90;99.90;;;;;;4815297;29;20061;-94
2022/01/27 01:35:15;;;;;;;35.90;18.15;;;5.70;99.90;;;;;;4814689;29;20054;-95
2022/01/27 01:37:43;;;;;;;33.15;17.80;;;5.60;99.90;;;;;;4814984;29;20066;-95
2022/01/27 01:40:14;;;;;;;39.45;18.70;;;5.60;99.90;;;;;;4813856;29;20065;-94
2022/01/27 01:42:42;;;;;;;36.33;19.27;;;5.60;99.90;;;;;;4814010;29;20409;-96
2022/01/27 01:45:17;;;;;;;37.67;20.98;;;5.60;99.90;;;;;;4829392;29;20072;-95
2022/01/27 01:47:48;;;;;;;35.42;17.20;;;5.60;99.90;;;;;;4814380;29;20445;-95
2022/01/27 01:50:18;;;;;;;30.33;16.75;;;5.60;99.90;;;;;;4813493;29;20176;-95
2022/01/27 01:52:44;;;;;;;39.85;19.40;;;5.80;99.90;;;;;;4813456;29;20064;-94
2022/01/27 01:55:12;;;;;;;34.03;18.02;;;5.60;99.90;;;;;;4828665;29;20136;-95
2022/01/27 01:57:38;;;;;;;39.33;17.60;;;5.60;99.90;;;;;;4814258;29;20565;-94
2022/01/27 02:00:08;;;;;;;39.03;18.35;;;5.50;99.90;;;;;;4814228;29;20149;-95
2022/01/27 02:02:37;;;;;;;38.15;17.88;;;5.60;99.90;;;;;;4829521;29;20138;-95
2022/01/27 02:05:05;;;;;;;38.67;20.30;;;5.60;99.90;;;;;;4814455;29;20062;-94
2022/01/27 02:18:12;;;;;;;38.05;19.85;;;5.70;99.90;;;;;;4828849;29;20058;-94
2022/01/27 02:20:40;;;;;;;41.25;18.85;;;5.80;99.90;;;;;;4813475;29;20148;-95
2022/01/27 02:23:14;;;;;;;38.70;20.02;;;5.80;99.90;;;;;;4813625;29;20073;-95
2022/01/27 02:25:50;;;;;;;43.47;22.40;;;5.60;99.90;;;;;;4813084;29;20074;-93
2022/01/27 02:28:16;;;;;;;38.90;20.25;;;5.60;99.90;;;;;;4813437;29;20050;-94
2022/01/27 02:30:47;;;;;;;43.35;21.80;;;5.60;99.90;;;;;;4813226;29;20046;-95
2022/01/27 02:33:12;;;;;;;40.72;20.13;;;5.70;99.90;;;;;;4828871;29;20050;-94
2022/01/27 02:35:38;;;;;;;33.90;19.27;;;5.50;99.90;;;;;;4813391;29;20106;-94
2022/01/27 02:38:17;;;;;;;45.05;22.17;;;5.40;99.90;;;;;;4813309;29;20049;-94
2022/01/27 02:40:51;;;;;;;41.70;20.00;;;5.30;99.90;;;;;;4812610;29;20150;-95
2022/01/27 02:43:17;;;;;;;45.83;20.95;;;5.30;99.90;;;;;;4812816;29;20061;-94
2022/01/27 02:45:53;;;;;;;42.35;20.85;;;5.40;99.90;;;;;;4812874;29;20050;-94
2022/01/27 02:48:26;;;;;;;43.78;21.42;;;5.40;99.90;;;;;;4828699;29;20096;-95
2022/01/27 02:50:52;;;;;;;37.92;18.58;;;5.60;99.90;;;;;;4813256;29;20064;-94
2022/01/27 02:53:18;;;;;;;44.45;20.83;;;5.30;99.90;;;;;;4813873;29;20054;-95
2022/01/27 02:55:43;;;;;;;45.17;19.98;;;5.50;99.90;;;;;;4819676;29;20054;-95
2022/01/27 02:58:11;;;;;;;39.35;19.40;;;5.70;99.90;;;;;;4834715;29;20137;-94
2022/01/27 03:00:37;;;;;;;40.58;21.23;;;5.80;99.90;;;;;;4819035;29;20613;-94
2022/01/27 03:03:25;;;;;;;41.65;20.90;;;5.60;99.90;;;;;;4834965;29;20125;-95
2022/01/27 03:05:54;;;;;;;44.92;19.30;;;5.50;99.90;;;;;;4834718;29;20144;-96
2022/01/27 03:08:23;;;;;;;42.42;19.88;;;5.50;99.90;;;;;;4819999;29;20053;-94
2022/01/27 03:11:02;;;;;;;38.97;20.08;;;5.60;99.90;;;;;;4819354;29;20066;-95
2022/01/27 03:13:30;;;;;;;44.70;19.70;;;5.60;99.90;;;;;;4834561;29;20496;-95
2022/01/27 03:16:08;;;;;;;47.40;21.83;;;5.60;99.90;;;;;;4833890;29;20561;-94
2022/01/27 03:18:36;;;;;;;42.92;19.13;;;5.80;99.90;;;;;;4819507;29;20061;-94
2022/01/27 03:21:04;;;;;;;44.97;21.73;;;5.60;99.90;;;;;;4819549;29;20146;-94
2022/01/27 03:23:30;;;;;;;45.08;21.83;;;5.60;99.90;;;;;;4818288;29;20062;-95
2022/01/27 03:26:04;;;;;;;38.40;19.40;;;5.70;99.90;;;;;;4818767;29;20500;-94
2022/01/27 03:28:30;;;;;;;42.88;21.27;;;5.80;99.90;;;;;;4818907;29;20138;-95
2022/01/27 03:30:56;;;;;;;32.83;15.27;;;5.60;99.90;;;;;;4819884;29;20065;-94
2022/01/27 03:33:24;;;;;;;38.13;18.80;;;5.70;99.90;;;;;;4818793;29;20064;-95
2022/01/27 03:35:50;;;;;;;36.72;18.75;;;5.70;99.90;;;;;;4834286;29;20054;-95
2022/01/27 03:38:16;;;;;;;39.45;20.70;;;5.70;99.90;;;;;;4819392;29;20092;-94
2022/01/27 03:40:42;;;;;;;45.03;20.45;;;5.60;99.90;;;;;;4818593;29;20058;-94
2022/01/27 03:43:09;;;;;;;48.00;21.40;;;6.00;99.90;;;;;;4834043;29;20066;-95
2022/01/27 03:45:36;;;;;;;39.58;19.45;;;5.70;99.90;;;;;;4818657;29;20480;-92
2022/01/27 03:48:02;;;;;;;41.58;19.13;;;5.70;99.90;;;;;;4818684;29;20089;-94
2022/01/27 03:50:46;;;;;;;48.42;22.80;;;5.60;99.90;;;;;;4833514;29;20399;-94
2022/01/27 03:53:15;;;;;;;49.85;23.55;;;5.60;99.90;;;;;;4833419;29;20489;-95
2022/01/27 03:55:49;;;;;;;40.13;19.73;;;5.40;99.90;;;;;;4817924;29;20066;-95
2022/01/27 03:58:14;;;;;;;43.38;21.23;;;5.50;99.90;;;;;;4817985;29;20092;-94
2022/01/27 04:00:41;;;;;;;43.75;20.15;;;5.30;99.90;;;;;;4818786;29;20081;-95
2022/01/27 04:03:12;;;;;;;48.22;23.27;;;5.20;99.90;;;;;;4818282;29;20054;-96
2022/01/27 04:05:44;;;;;;;45.03;21.73;;;5.00;99.90;;;;;;4832211;29;20489;-95
2022/01/27 04:08:14;;;;;;;49.10;23.23;;;5.10;99.90;;;;;;4816054;29;20141;-93
2022/01/27 04:10:41;;;;;;;47.55;22.73;;;5.00;99.90;;;;;;4831715;29;20058;-96
2022/01/27 04:13:07;;;;;;;45.92;23.05;;;5.00;99.90;;;;;;4816691;29;20057;-94
2022/01/27 04:15:36;;;;;;;49.03;23.83;;;5.00;99.90;;;;;;4832288;29;20058;-94
2022/01/27 04:18:03;;;;;;;37.92;18.02;;;5.00;99.90;;;;;;4831636;29;20058;-95
2022/01/27 04:20:29;;;;;;;42.05;21.50;;;5.10;99.90;;;;;;4816497;29;20186;-95
2022/01/27 04:22:55;;;;;;;45.20;22.00;;;5.10;99.90;;;;;;4830737;29;20089;-96
2022/01/27 04:25:21;;;;;;;36.35;17.98;;;5.20;99.90;;;;;;4831359;29;20057;-95
2022/01/27 04:27:52;;;;;;;41.65;19.80;;;5.20;99.90;;;;;;4817383;29;20095;-95
2022/01/27 04:30:34;;;;;;;39.85;19.35;;;5.30;99.90;;;;;;4818022;29;20054;-95
2022/01/27 04:33:03;;;;;;;39.05;19.33;;;5.30;99.90;;;;;;4816685;29;20098;-94
2022/01/27 04:35:36;;;;;;;44.40;21.77;;;5.30;99.90;;;;;;4816857;29;20149;-94
2022/01/27 04:38:23;;;;;;;40.35;21.02;;;5.40;99.90;;;;;;4817109;29;20058;-95
2022/01/27 04:43:30;;;;;;;44.05;20.98;;;5.40;99.90;;;;;;4831996;29;20058;-94
2022/01/27 04:48:24;;;;;;;40.75;19.52;;;5.60;99.90;;;;;;4831406;29;20157;-96
2022/01/27 04:50:54;;;;;;;40.17;17.60;;;5.50;99.90;;;;;;4816483;29;20084;-95
2022/01/27 04:53:27;;;;;;;46.30;21.58;;;5.80;99.90;;;;;;4815891;29;20125;-95
2022/01/27 04:56:02;;;;;;;39.53;18.17;;;5.60;99.90;;;;;;4815340;29;20069;-95
2022/01/27 04:58:33;;;;;;;38.63;19.80;;;5.60;99.90;;;;;;4816315;29;20141;-95
2022/01/27 05:01:02;;;;;;;43.08;19.95;;;5.60;99.90;;;;;;4816741;29;20136;-94
2022/01/27 05:06:01;;;;;;;40.22;18.75;;;5.60;99.90;;;;;;4830947;29;20050;-95
2022/01/27 05:08:27;;;;;;;48.50;21.35;;;5.60;99.90;;;;;;4831505;29;20263;-95
2022/01/27 05:10:58;;;;;;;39.50;19.65;;;6.00;99.90;;;;;;4817153;29;20144;-94
2022/01/27 05:13:26;;;;;;;47.13;22.17;;;5.60;99.90;;;;;;4832774;29;20094;-96
2022/01/27 05:15:52;;;;;;;45.08;20.42;;;5.60;99.90;;;;;;4815479;29;20062;-95
2022/01/27 05:18:25;;;;;;;42.10;20.48;;;5.70;99.90;;;;;;4815564;29;20056;-95
2022/01/27 05:20:53;;;;;;;40.90;19.52;;;5.70;99.90;;;;;;4817517;29;20148;-95
2022/01/27 05:23:48;;;;;;;45.78;21.73;;;5.50;99.90;;;;;;4817185;29;20065;-94
2022/01/27 05:26:16;;;;;;;39.25;16.98;;;5.50;99.90;;;;;;4817068;29;20066;-95
2022/01/27 05:28:44;;;;;;;42.90;19.02;;;5.50;99.90;;;;;;4816733;29;20479;-95
2022/01/27 05:31:15;;;;;;;42.33;18.92;;;5.70;99.90;;;;;;4815079;29;20150;-96
2022/01/27 05:33:41;;;;;;;42.05;18.50;;;5.60;99.90;;;;;;4815766;29;20054;-94
2022/01/27 05:36:25;;;;;;;40.45;16.80;;;5.60;99.90;;;;;;4831483;29;20185;-96
2022/01/27 05:38:56;;;;;;;36.67;18.40;;;5.60;99.90;;;;;;4817258;29;20118;-96
2022/01/27 05:41:21;;;;;;;41.20;18.50;;;5.70;99.90;;;;;;4815724;29;20084;-96
2022/01/27 05:43:47;;;;;;;38.90;18.40;;;5.70;99.90;;;;;;4830001;29;20049;-95
2022/01/27 05:46:15;;;;;;;39.50;18.75;;;5.70;99.90;;;;;;4815662;29;20070;-95
2022/01/27 05:48:41;;;;;;;43.88;19.10;;;5.60;99.90;;;;;;4831707;29;20091;-95
2022/01/27 05:51:07;;;;;;;39.78;16.23;;;5.70;99.90;;;;;;4830855;29;20061;-95
2022/01/27 05:53:36;;;;;;;40.08;19.98;;;5.70;99.90;;;;;;4814638;29;20058;-95
2022/01/27 05:56:03;;;;;;;39.63;16.73;;;5.70;99.90;;;;;;4830750;29;20429;-95
2022/01/27 05:58:28;;;;;;;41.83;19.65;;;5.80;99.90;;;;;;4833656;29;20066;-96
2022/01/27 06:00:57;;;;;;;42.08;19.75;;;5.60;99.90;;;;;;4822706;29;20068;-96
2022/01/27 06:03:23;;;;;;;46.80;21.02;;;5.70;99.90;;;;;;4819901;29;20057;-95
2022/01/27 06:06:07;;;;;;;45.42;21.27;;;5.80;99.90;;;;;;4820468;29;20428;-96
2022/01/27 06:08:33;;;;;;;53.38;20.67;;;5.60;99.90;;;;;;4819667;29;20065;-95
2022/01/27 06:11:02;;;;;;;57.63;22.25;;;5.40;99.90;;;;;;4817014;29;20062;-96
2022/01/27 06:13:32;;;;;;;50.30;21.33;;;5.30;99.90;;;;;;4816918;29;20118;-96
2022/01/27 06:15:58;;;;;;;62.05;24.13;;;5.20;99.90;;;;;;4829651;29;20062;-92
2022/01/27 06:18:23;;;;;;;55.13;21.20;;;5.20;99.90;;;;;;4827519;29;20058;-93
2022/01/27 06:20:51;;;;;;;53.90;20.38;;;5.50;99.90;;;;;;4810446;29;20058;-93
2022/01/27 06:23:20;;;;;;;60.55;23.00;;;5.10;99.90;;;;;;4794703;29;20058;-95
2022/01/27 06:25:48;;;;;;;61.95;22.90;;;5.10;99.90;;;;;;4794309;29;20054;-94
2022/01/27 06:28:14;;;;;;;61.35;24.17;;;5.10;99.90;;;;;;4793056;29;20054;-92
2022/01/27 06:30:40;;;;;;;72.00;24.27;;;5.10;99.90;;;;;;4793538;29;20099;-93
2022/01/27 06:33:06;;;;;;;75.13;25.92;;;5.00;99.90;;;;;;4794120;29;20090;-95
2022/01/27 06:35:32;;;;;;;69.93;24.58;;;5.10;99.90;;;;;;4795357;29;20062;-93
2022/01/27 06:37:58;;;;;;;78.45;25.13;;;5.20;99.90;;;;;;4795832;29;20576;-94
2022/01/27 06:40:24;;;;;;;73.25;24.52;;;5.20;99.90;;;;;;4813307;29;20149;-95
2022/01/27 06:42:56;;;;;;;70.65;21.98;;;5.00;99.90;;;;;;4812681;29;20408;-95
2022/01/27 06:45:22;;;;;;;83.55;26.00;;;5.20;99.90;;;;;;4797237;29;20108;-95
2022/01/27 06:47:47;;;;;;;81.45;25.70;;;5.20;99.90;;;;;;4796291;29;20058;-94
2022/01/27 06:50:13;;;;;;;86.15;24.65;;;5.10;99.90;;;;;;4795080;29;20170;-93
2022/01/27 06:52:42;;;;;;;80.63;26.20;;;5.20;99.90;;;;;;4798994;29;20424;-91
2022/01/27 06:55:10;;;;;;;91.72;26.95;;;5.40;99.90;;;;;;4808554;29;20069;-92
2022/01/27 06:57:36;;;;;;;95.13;27.15;;;5.20;99.90;;;;;;4823723;29;20074;-93
2022/01/27 07:00:07;;;;;;;71.00;23.73;;;5.40;99.90;;;;;;4807848;29;20050;-92
2022/01/27 07:02:33;;;;;;;82.47;25.60;;;5.20;99.90;;;;;;4823062;29;20062;-92
2022/01/27 07:04:59;;;;;;;63.50;24.05;;;5.20;99.90;;;;;;4823192;29;20066;-89
2022/01/27 07:07:25;;;;;;;73.15;25.35;;;5.20;99.90;;;;;;4808281;29;20058;-92
2022/01/27 07:09:50;;;;;;;82.15;24.17;;;5.20;99.90;;;;;;4808680;29;20098;-93
2022/01/27 07:12:16;;;;;;;71.10;24.13;;;5.20;99.90;;;;;;4823357;29;20050;-91
2022/01/27 07:14:42;;;;;;;76.50;23.52;;;5.30;99.90;;;;;;4823303;29;20409;-92
2022/01/27 07:17:14;;;;;;;71.38;25.58;;;5.50;99.90;;;;;;4823066;29;20066;-91
2022/01/27 07:19:41;;;;;;;78.88;24.08;;;5.20;99.90;;;;;;4824263;29;20437;-94
2022/01/27 07:22:07;;;;;;;80.88;25.23;;;5.30;99.90;;;;;;4809100;29;20062;-94
2022/01/27 07:24:33;;;;;;;65.10;22.02;;;5.40;99.90;;;;;;4809870;29;20082;-95
2022/01/27 07:27:01;;;;;;;55.28;20.33;;;5.40;99.90;;;;;;4825861;29;20054;-91
2022/01/27 07:29:27;;;;;;;61.72;21.00;;;5.70;99.90;;;;;;4807552;29;20451;-92
2022/01/27 07:31:55;;;;;;;64.82;20.25;;;5.40;99.90;;;;;;4823041;29;20066;-92
2022/01/27 07:34:26;;;;;;;51.50;19.48;;;5.50;99.90;;;;;;4808311;29;20050;-92
2022/01/27 07:36:56;;;;;;;52.65;18.02;;;5.50;99.90;;;;;;4823572;29;20066;-93
2022/01/27 07:39:25;;;;;;;58.53;21.00;;;5.50;99.90;;;;;;4824252;29;20065;-95
2022/01/27 07:41:51;;;;;;;64.63;21.45;;;5.60;99.90;;;;;;4828050;29;20588;-92
2022/01/27 07:44:17;;;;;;;71.70;22.52;;;5.60;99.90;;;;;;4827147;29;20065;-92
2022/01/27 07:46:42;;;;;;;57.97;19.90;;;5.60;99.90;;;;;;4813780;29;20450;-96
2022/01/27 07:49:21;;;;;;;57.35;20.00;;;5.60;99.90;;;;;;4811683;29;20050;-94
2022/01/27 07:51:49;;;;;;;43.20;17.50;;;5.50;99.90;;;;;;4812362;29;20413;-93
2022/01/27 07:54:15;;;;;;;62.58;21.90;;;5.60;99.90;;;;;;4828078;29;20062;-96
2022/01/27 07:56:43;;;;;;;58.28;19.90;;;5.60;99.90;;;;;;4813959;29;20138;-94
2022/01/27 07:59:09;;;;;;;64.93;21.70;;;5.70;99.90;;;;;;4811045;29;20086;-92
2022/01/27 08:01:35;;;;;;;65.30;21.75;;;5.70;99.90;;;;;;4811263;29;20093;-94
2022/01/27 08:04:00;;;;;;;57.42;20.95;;;5.80;99.90;;;;;;4813949;29;20062;-95
2022/01/27 08:06:27;;;;;;;60.50;21.00;;;5.80;99.90;;;;;;4812644;29;20065;-95
2022/01/27 08:08:52;;;;;;;71.22;22.60;;;5.80;99.90;;;;;;4826835;29;20125;-93
2022/01/27 08:11:19;;;;;;;69.80;23.73;;;5.80;99.90;;;;;;4827193;29;20454;-95
2022/01/27 08:13:45;;;;;;;64.60;21.50;;;5.80;99.90;;;;;;4827779;29;20058;-94
2022/01/27 08:16:14;;;;;;;60.38;20.77;;;5.90;99.90;;;;;;4827607;29;20058;-94
2022/01/27 08:18:39;;;;;;;56.25;20.23;;;5.80;99.90;;;;;;4829139;29;20054;-95
2022/01/27 08:21:05;;;;;;;60.40;19.52;;;6.40;99.90;;;;;;4830482;29;20089;-95
2022/01/27 08:23:31;;;;;;;66.10;20.48;;;6.20;99.90;;;;;;4830287;29;20093;-95
2022/01/27 08:26:05;;;;;;;68.28;21.95;;;6.20;99.90;;;;;;4814444;29;20069;-95
2022/01/27 08:28:38;;;;;;;69.63;20.63;;;6.20;99.90;;;;;;4812147;29;20058;-95
2022/01/27 08:38:06;;;;;;;51.38;17.15;;;6.40;99.90;;;;;;4829098;29;20529;-92
2022/01/27 08:40:32;;;;;;;66.10;19.05;;;6.40;99.90;;;;;;4813863;29;20058;-93
2022/01/27 08:43:04;;;;;;;52.20;16.33;;;6.50;99.90;;;;;;4828864;29;20069;-94
2022/01/27 08:45:30;;;;;;;60.38;18.20;;;6.50;99.90;;;;;;4828200;29;20154;-94
2022/01/27 08:47:58;;;;;;;66.85;18.73;;;6.50;99.90;;;;;;4811821;29;20130;-95
2022/01/27 08:50:24;;;;;;;55.22;17.90;;;6.60;99.90;;;;;;4813223;29;20067;-93
2022/01/27 08:52:50;;;;;;;55.08;17.45;;;6.60;99.90;;;;;;4825961;29;20096;-90
2022/01/27 08:55:20;;;;;;;56.42;17.55;;;6.60;99.90;;;;;;4826414;29;20089;-93
2022/01/27 08:57:51;;;;;;;46.63;16.48;;;6.60;99.90;;;;;;4826724;29;20058;-94
2022/01/27 09:00:19;;;;;;;55.83;17.27;;;6.60;99.90;;;;;;4811330;29;20063;-93
2022/01/27 09:02:46;;;;;;;58.28;19.13;;;6.70;99.90;;;;;;4829655;29;20497;-95
2022/01/27 09:05:35;;;;;;;60.50;17.23;;;6.70;99.90;;;;;;4812949;29;20061;-94
2022/01/27 09:08:01;;;;;;;48.92;15.65;;;6.70;99.90;;;;;;4810802;29;20413;-93
2022/01/27 09:10:31;;;;;;;56.47;16.95;;;6.80;99.90;;;;;;4825599;29;20477;-91
2022/01/27 09:13:01;;;;;;;62.88;16.95;;;6.90;99.90;;;;;;4810316;29;20054;-94
2022/01/27 09:15:28;;;;;;;49.05;14.65;;;6.90;99.90;;;;;;4811842;29;20062;-95
2022/01/27 09:17:56;;;;;;;51.08;16.05;;;7.00;99.90;;;;;;4827554;29;20138;-94
2022/01/27 09:24:15;;;;;;;55.47;14.88;;;7.10;99.90;;;;;;4827144;29;20065;-93
2022/01/27 09:29:14;;;;;;;45.90;12.23;;;7.30;99.90;;;;;;4810776;29;20058;-94
2022/01/27 09:31:40;;;;;;;40.92;13.07;;;7.20;99.90;;;;;;4825558;29;20063;-92
2022/01/27 09:34:06;;;;;;;49.55;13.05;;;7.20;99.90;;;;;;4810621;29;20479;-90
2022/01/27 09:40:13;;;;;;;35.63;9.73;;;7.20;99.90;;;;;;4825961;29;20459;-91
2022/01/27 09:42:40;;;;;;;38.17;10.85;;;7.20;99.90;;;;;;4810131;29;20054;-92
2022/01/27 09:45:08;;;;;;;39.28;11.15;;;7.40;99.90;;;;;;4824985;29;20061;-94
2022/01/27 09:47:39;;;;;;;34.67;11.27;;;7.30;99.90;;;;;;4810527;29;20497;-92
2022/01/27 09:52:40;;;;;;;38.15;9.95;;;7.40;99.90;;;;;;4810203;29;20463;-92
2022/01/27 09:55:07;;;;;;;35.00;11.07;;;7.60;99.90;;;;;;4825461;29;20060;-91
2022/01/27 09:57:33;;;;;;;39.00;10.10;;;7.70;99.90;;;;;;4825496;29;20051;-92
2022/01/27 09:59:59;;;;;;;33.05;9.88;;;7.70;99.90;;;;;;4824692;29;20064;-91
2022/01/27 10:02:26;;;;;;;32.85;10.40;;;7.90;99.90;;;;;;4809337;29;20098;-93
2022/01/27 10:04:59;;;;;;;42.20;10.43;;;7.80;99.90;;;;;;4809787;29;20089;-93
2022/01/27 10:07:33;;;;;;;40.35;9.82;;;7.60;99.90;;;;;;4825139;29;20098;-94
2022/01/27 10:10:13;;;;;;;30.55;10.20;;;7.60;99.90;;;;;;4810011;29;20149;-91
2022/01/27 10:12:45;;;;;;;34.17;10.05;;;7.60;99.90;;;;;;4824558;29;20134;-91
2022/01/27 10:15:14;;;;;;;30.92;9.75;;;7.50;99.90;;;;;;4824873;29;20445;-91
2022/01/27 10:18:04;;;;;;;32.15;9.30;;;7.60;99.90;;;;;;4809556;29;20488;-92
2022/01/27 10:20:29;;;;;;;27.63;9.27;;;7.60;99.90;;;;;;4809819;29;20054;-93
2022/01/27 10:23:24;;;;;;;36.40;9.50;;;7.60;99.90;;;;;;4824558;29;20119;-93
2022/01/27 10:25:57;;;;;;;33.80;9.68;;;7.60;99.90;;;;;;4810009;29;20489;-93
2022/01/27 10:31:13;;;;;;;32.78;9.48;;;7.60;99.90;;;;;;4825029;29;20058;-92
2022/01/27 10:33:41;;;;;;;35.17;9.13;;;7.60;99.90;;;;;;4809978;29;20148;-92
2022/01/27 10:36:52;;;;;;;36.92;9.55;;;7.60;99.90;;;;;;4825130;29;20062;-91
2022/01/27 10:39:22;;;;;;;31.13;9.05;;;7.60;99.90;;;;;;4808202;29;20058;-92
2022/01/27 10:42:00;;;;;;;33.15;9.35;;;7.60;99.90;;;;;;4809425;29;20066;-93
2022/01/27 10:44:37;;;;;;;27.63;8.23;;;7.60;99.90;;;;;;4824386;29;20096;-91
2022/01/27 10:47:11;;;;;;;41.42;8.52;;;7.60;99.90;;;;;;4825435;29;20482;-90
2022/01/27 10:49:50;;;;;;;35.72;9.43;;;7.60;99.90;;;;;;4816691;29;20060;-93
2022/01/27 10:52:26;;;;;;;33.55;8.95;;;7.60;99.90;;;;;;4808523;29;20058;-93
2022/01/27 10:55:00;;;;;;;30.95;8.20;;;7.60;99.90;;;;;;4809733;29;20062;-92
2022/01/27 10:57:26;;;;;;;26.73;9.20;;;7.70;99.90;;;;;;4809853;29;20062;-92
2022/01/27 11:00:16;;;;;;;24.95;8.32;;;7.70;99.90;;;;;;4809004;29;20057;-93
2022/01/27 11:03:02;;;;;;;22.85;7.40;;;7.70;99.90;;;;;;4809574;29;20061;-93
2022/01/27 11:06:11;;;;;;;25.95;8.82;;;7.80;99.90;;;;;;4810337;29;20066;-93
2022/01/27 11:08:41;;;;;;;24.25;7.60;;;7.80;99.90;;;;;;4824597;29;20471;-92
2022/01/27 11:11:07;;;;;;;28.17;9.02;;;7.90;99.90;;;;;;4808544;29;20145;-92
2022/01/27 11:13:35;;;;;;;32.97;8.60;;;7.80;99.90;;;;;;4808371;29;20585;-92
2022/01/27 11:16:03;;;;;;;31.85;8.50;;;7.90;99.90;;;;;;4826886;29;20062;-93
2022/01/27 11:18:30;;;;;;;25.38;8.15;;;8.00;99.90;;;;;;4812352;29;20458;-91
2022/01/27 11:21:01;;;;;;;31.10;9.43;;;8.00;99.90;;;;;;4812717;29;20401;-93
2022/01/27 11:26:09;;;;;;;34.13;8.77;;;8.30;99.90;;;;;;4827649;29;20058;-93
2022/01/27 11:28:36;;;;;;;31.77;7.97;;;8.10;99.90;;;;;;4811946;29;20465;-93
2022/01/27 11:31:30;;;;;;;26.15;8.90;;;8.20;99.90;;;;;;4811860;29;20066;-94
2022/01/27 11:34:07;;;;;;;28.15;7.07;;;8.30;99.90;;;;;;4812109;29;20489;-92
2022/01/27 11:36:33;;;;;;;29.90;8.63;;;8.40;99.90;;;;;;4812835;29;20588;-92
2022/01/27 11:39:01;;;;;;;20.88;6.63;;;8.40;99.90;;;;;;4811792;29;20062;-92
2022/01/27 11:41:44;;;;;;;25.10;7.30;;;8.50;99.90;;;;;;4812119;29;20064;-92
2022/01/27 11:44:25;;;;;;;25.85;6.53;;;8.40;99.90;;;;;;4826802;29;20062;-93
2022/01/27 11:47:10;;;;;;;25.17;5.65;;;8.40;99.90;;;;;;4812799;29;20092;-94
2022/01/27 11:50:07;;;;;;;22.58;5.82;;;8.50;99.90;;;;;;4812106;29;20099;-94
2022/01/27 11:52:53;;;;;;;23.40;4.80;;;8.50;99.90;;;;;;4812098;29;20417;-92
2022/01/27 11:55:25;;;;;;;21.25;5.13;;;8.50;99.90;;;;;;4811664;29;20501;-93
2022/01/27 11:57:53;;;;;;;19.48;4.30;;;8.50;99.90;;;;;;4812875;29;20057;-94
2022/01/27 12:00:29;;;;;;;15.38;4.68;;;8.50;99.90;;;;;;4811493;29;20058;-94
2022/01/27 12:03:01;;;;;;;18.60;4.65;;;8.50;99.90;;;;;;4811815;29;20218;-94
2022/01/27 12:05:33;;;;;;;16.60;4.47;;;8.90;99.90;;;;;;4812231;29;20073;-95
2022/01/27 12:08:14;;;;;;;17.70;4.50;;;8.70;99.90;;;;;;4826764;29;20085;-92
2022/01/27 12:11:06;;;;;;;13.38;3.75;;;8.80;99.90;;;;;;4811780;29;20058;-93
2022/01/27 12:19:03;;;;;;;21.50;4.57;;;9.00;99.90;;;;;;4826195;29;20062;-94
2022/01/27 12:21:31;;;;;;;17.83;3.50;;;8.90;99.90;;;;;;4811324;29;20066;-93
2022/01/27 12:24:12;;;;;;;23.77;4.07;;;8.90;99.90;;;;;;4812206;29;20509;-93
2022/01/27 12:26:56;;;;;;;18.38;3.45;;;9.00;99.90;;;;;;4810651;29;20145;-92
2022/01/27 12:29:40;;;;;;;18.75;3.75;;;9.00;99.90;;;;;;4810887;29;20608;-93
2022/01/27 12:32:08;;;;;;;17.25;3.78;;;9.00;99.90;;;;;;4811070;29;20493;-92
2022/01/27 12:34:35;;;;;;;21.02;3.97;;;9.00;99.90;;;;;;4810760;29;20095;-94
2022/01/27 12:37:10;;;;;;;18.45;3.85;;;9.00;99.90;;;;;;4811243;29;20156;-91
2022/01/27 12:39:41;;;;;;;18.83;4.03;;;8.80;99.90;;;;;;4811223;29;20536;-94
2022/01/27 12:42:12;;;;;;;16.60;3.75;;;8.90;99.90;;;;;;4810280;29;20153;-92
2022/01/27 12:44:58;;;;;;;;;;;8.90;99.90;;;;;;4811492;29;20093;-96
2022/01/27 12:47:26;;;;;;;11.75;2.45;;;9.00;99.90;;;;;;4825780;29;19929;-92
2022/01/27 12:50:05;;;;;;;19.05;2.63;;;8.90;99.90;;;;;;4810517;29;20104;-92
2022/01/27 12:52:37;;;;;;;16.73;3.28;;;8.80;99.90;;;;;;4810098;29;20083;-95
2022/01/27 12:55:05;;;;;;;18.63;3.25;;;8.80;99.90;;;;;;4811613;29;20054;-95
2022/01/27 12:57:32;;;;;;;24.77;3.58;;;8.80;99.90;;;;;;4825809;29;20076;-94
2022/01/27 13:00:00;;;;;;;15.68;2.80;;;8.80;99.90;;;;;;4810284;29;20063;-93
2022/01/27 13:02:27;;;;;;;17.50;3.22;;;8.80;99.90;;;;;;4825504;29;20413;-92
2022/01/27 13:04:55;;;;;;;13.98;2.55;;;8.80;99.90;;;;;;4810171;29;20077;-93
2022/01/27 13:07:25;;;;;;;14.98;2.47;;;9.10;99.90;;;;;;4810826;29;20124;-93
2022/01/27 13:10:04;;;;;;;17.70;2.97;;;8.90;99.90;;;;;;4826034;29;20054;-92
2022/01/27 13:15:11;;;;;;;13.73;2.65;;;8.90;99.90;;;;;;4826187;29;20145;-92
2022/01/27 13:17:53;;;;;;;20.50;3.33;;;8.90;99.90;;;;;;4810723;29;20051;-92
2022/01/27 13:20:29;;;;;;;27.67;6.25;;;8.90;99.90;;;;;;4810939;29;20069;-93
2022/01/27 13:23:08;;;;;;;26.73;6.85;;;9.20;99.90;;;;;;4810512;29;20084;-92
2022/01/27 13:25:44;;;;;;;14.05;2.85;;;8.90;99.90;;;;;;4809920;29;20066;-93
2022/01/27 13:28:19;;;;;;;18.13;2.78;;;9.10;99.90;;;;;;4809955;29;20122;-93
2022/01/27 13:30:46;;;;;;;17.63;2.65;;;8.90;99.90;;;;;;4810502;29;20528;-94
2022/01/27 13:33:17;;;;;;;16.25;3.22;;;8.90;99.90;;;;;;4811353;29;20051;-93
2022/01/27 13:35:46;;;;;;;29.63;3.83;;;8.80;99.90;;;;;;4809944;29;20058;-94
2022/01/27 13:43:52;;;;;;;18.90;3.70;;;8.60;99.90;;;;;;4824923;29;20070;-92
2022/01/27 13:46:47;;;;;;;20.90;3.65;;;8.40;99.90;;;;;;4825341;29;20114;-95
2022/01/27 13:49:30;;;;;;;20.65;3.42;;;8.80;99.90;;;;;;4811316;29;20062;-93
2022/01/27 13:52:11;;;;;;;22.92;3.08;;;8.60;99.90;;;;;;4809576;29;20054;-94
2022/01/27 13:54:51;;;;;;;23.20;3.22;;;8.60;99.90;;;;;;4811243;29;20090;-91
2022/01/27 13:57:22;;;;;;;17.30;2.65;;;8.60;99.90;;;;;;4810167;29;20070;-91
2022/01/27 14:00:00;;;;;;;18.77;3.67;;;8.60;99.90;;;;;;4809464;29;20322;-92
2022/01/27 14:02:35;;;;;;;19.52;2.72;;;8.60;99.90;;;;;;4809894;29;20141;-93
2022/01/27 14:05:09;;;;;;;23.33;3.97;;;8.50;99.90;;;;;;4825004;29;20054;-92
2022/01/27 14:07:38;;;;;;;15.30;3.45;;;8.50;99.90;;;;;;4825033;29;20058;-94
2022/01/27 14:10:17;;;;;;;21.05;2.80;;;8.80;99.90;;;;;;4808993;29;20063;-92
2022/01/27 14:12:55;;;;;;;27.63;2.88;;;8.50;99.90;;;;;;4809795;29;20413;-94
2022/01/27 14:15:53;;;;;;;25.90;3.17;;;8.50;99.90;;;;;;4825500;29;20455;-92
2022/01/27 14:18:21;;;;;;;16.33;3.08;;;8.50;99.90;;;;;;4824319;29;20091;-93
2022/01/27 14:20:56;;;;;;;19.92;2.40;;;8.50;99.90;;;;;;4809629;29;20090;-94
2022/01/27 14:26:25;;;;;;;42.45;12.35;;;8.50;99.90;;;;;;4824894;29;20066;-93